sensor_id;sensor_type;location;lat;lon;timestamp;P1;durP1;ratioP1;P2;durP2;ratioP2
21084;SDS011;34247;50.064;19.970;2023-07-13T00:00:44;4.82;;;3.00;;
21084;SDS011;34247;50.064;19.970;2023-07-13T00:02:17;7.13;;;3.38;;
21084;SDS011;34247;50.064;19.970;2023-07-13T00:03:50;6.97;;;3.75;;
21084;SDS011;34247;50.064;19.970;2023-07-13T00:05:23;10.50;;;3.55;;
21084;SDS011;34247;50.064;19.970;2023-07-13T00:06:56;5.68;;;3.47;;
21084;SDS011;34247;50.064;19.970;2023-07-13T00:08:30;4.47;;;3.13;;
21084;SDS011;34247;50.064;19.970;2023-07-13T00:10:04;4.18;;;3.28;;
21084;SDS011;34247;50.064;19.970;2023-07-13T00:11:38;5.45;;;3.20;;
21084;SDS011;34247;50.064;19.970;2023-07-13T00:13:12;7.85;;;3.90;;
21084;SDS011;34247;50.064;19.970;2023-07-13T00:14:46;7.55;;;3.40;;
21084;SDS011;34247;50.064;19.970;2023-07-13T00:16:19;5.00;;;3.25;;
21084;SDS011;34247;50.064;19.970;2023-07-13T00:17:53;4.88;;;3.38;;
21084;SDS011;34247;50.064;19.970;2023-07-13T00:19:27;5.28;;;3.25;;
21084;SDS011;34247;50.064;19.970;2023-07-13T00:21:00;5.47;;;2.92;;
21084;SDS011;34247;50.064;19.970;2023-07-13T00:22:33;3.75;;;3.00;;
21084;SDS011;34247;50.064;19.970;2023-07-13T00:24:14;5.03;;;2.72;;
21084;SDS011;34247;50.064;19.970;2023-07-13T00:25:49;8.93;;;3.78;;
21084;SDS011;34247;50.064;19.970;2023-07-13T00:27:22;5.05;;;3.00;;
21084;SDS011;34247;50.064;19.970;2023-07-13T00:28:56;4.93;;;2.83;;
21084;SDS011;34247;50.064;19.970;2023-07-13T00:30:29;4.65;;;2.72;;
21084;SDS011;34247;50.064;19.970;2023-07-13T00:32:03;7.13;;;3.58;;
21084;SDS011;34247;50.064;19.970;2023-07-13T00:33:39;5.07;;;3.08;;
21084;SDS011;34247;50.064;19.970;2023-07-13T00:35:13;5.85;;;2.67;;
21084;SDS011;34247;50.064;19.970;2023-07-13T00:36:47;4.57;;;2.80;;
21084;SDS011;34247;50.064;19.970;2023-07-13T00:38:20;9.15;;;2.95;;
21084;SDS011;34247;50.064;19.970;2023-07-13T00:39:55;4.70;;;2.83;;
21084;SDS011;34247;50.064;19.970;2023-07-13T00:41:28;5.40;;;2.65;;
21084;SDS011;34247;50.064;19.970;2023-07-13T00:43:02;4.20;;;2.58;;
21084;SDS011;34247;50.064;19.970;2023-07-13T00:44:37;4.07;;;2.40;;
21084;SDS011;34247;50.064;19.970;2023-07-13T00:46:15;4.25;;;2.60;;
21084;SDS011;34247;50.064;19.970;2023-07-13T00:47:53;5.40;;;2.47;;
21084;SDS011;34247;50.064;19.970;2023-07-13T00:49:29;4.47;;;2.95;;
21084;SDS011;34247;50.064;19.970;2023-07-13T00:51:06;5.93;;;2.88;;
21084;SDS011;34247;50.064;19.970;2023-07-13T00:52:45;3.28;;;2.55;;
21084;SDS011;34247;50.064;19.970;2023-07-13T00:54:26;3.63;;;2.92;;
21084;SDS011;34247;50.064;19.970;2023-07-13T00:56:09;3.78;;;2.35;;
21084;SDS011;34247;50.064;19.970;2023-07-13T00:57:43;5.57;;;2.90;;
21084;SDS011;34247;50.064;19.970;2023-07-13T00:59:17;4.75;;;2.60;;
21084;SDS011;34247;50.064;19.970;2023-07-13T01:00:54;4.35;;;3.00;;
21084;SDS011;34247;50.064;19.970;2023-07-13T01:02:27;4.97;;;2.60;;
21084;SDS011;34247;50.064;19.970;2023-07-13T01:04:01;3.97;;;2.67;;
21084;SDS011;34247;50.064;19.970;2023-07-13T01:05:35;3.78;;;2.70;;
21084;SDS011;34247;50.064;19.970;2023-07-13T01:07:09;4.32;;;2.80;;
21084;SDS011;34247;50.064;19.970;2023-07-13T01:08:44;4.72;;;2.80;;
21084;SDS011;34247;50.064;19.970;2023-07-13T01:10:21;4.38;;;2.70;;
21084;SDS011;34247;50.064;19.970;2023-07-13T01:11:55;7.10;;;2.78;;
21084;SDS011;34247;50.064;19.970;2023-07-13T01:13:28;3.88;;;2.60;;
21084;SDS011;34247;50.064;19.970;2023-07-13T01:15:02;4.38;;;2.75;;
21084;SDS011;34247;50.064;19.970;2023-07-13T01:16:36;5.05;;;2.67;;
21084;SDS011;34247;50.064;19.970;2023-07-13T01:18:17;5.20;;;2.90;;
21084;SDS011;34247;50.064;19.970;2023-07-13T01:19:56;4.32;;;2.58;;
21084;SDS011;34247;50.064;19.970;2023-07-13T01:21:29;5.68;;;2.50;;
21084;SDS011;34247;50.064;19.970;2023-07-13T01:23:06;3.95;;;2.83;;
21084;SDS011;34247;50.064;19.970;2023-07-13T01:24:43;6.10;;;2.83;;
21084;SDS011;34247;50.064;19.970;2023-07-13T01:26:20;5.32;;;2.38;;
21084;SDS011;34247;50.064;19.970;2023-07-13T01:27:53;5.30;;;2.50;;
21084;SDS011;34247;50.064;19.970;2023-07-13T01:29:26;4.20;;;2.92;;
21084;SDS011;34247;50.064;19.970;2023-07-13T01:30:59;7.55;;;2.80;;
21084;SDS011;34247;50.064;19.970;2023-07-13T01:32:32;5.82;;;2.65;;
21084;SDS011;34247;50.064;19.970;2023-07-13T01:34:05;4.20;;;2.78;;
21084;SDS011;34247;50.064;19.970;2023-07-13T01:35:39;3.00;;;2.30;;
21084;SDS011;34247;50.064;19.970;2023-07-13T01:37:13;8.63;;;2.70;;
21084;SDS011;34247;50.064;19.970;2023-07-13T01:38:46;5.97;;;3.13;;
21084;SDS011;34247;50.064;19.970;2023-07-13T01:40:19;7.50;;;3.65;;
21084;SDS011;34247;50.064;19.970;2023-07-13T01:41:53;4.70;;;2.88;;
21084;SDS011;34247;50.064;19.970;2023-07-13T01:43:26;4.60;;;3.20;;
21084;SDS011;34247;50.064;19.970;2023-07-13T01:44:59;5.45;;;2.90;;
21084;SDS011;34247;50.064;19.970;2023-07-13T01:46:32;5.32;;;3.45;;
21084;SDS011;34247;50.064;19.970;2023-07-13T01:48:05;4.68;;;2.75;;
21084;SDS011;34247;50.064;19.970;2023-07-13T01:49:39;6.57;;;3.28;;
21084;SDS011;34247;50.064;19.970;2023-07-13T01:51:11;5.45;;;3.35;;
21084;SDS011;34247;50.064;19.970;2023-07-13T01:52:45;5.43;;;3.50;;
21084;SDS011;34247;50.064;19.970;2023-07-13T01:54:18;4.57;;;3.22;;
21084;SDS011;34247;50.064;19.970;2023-07-13T01:55:51;7.00;;;3.30;;
21084;SDS011;34247;50.064;19.970;2023-07-13T01:57:24;4.28;;;2.70;;
21084;SDS011;34247;50.064;19.970;2023-07-13T01:58:57;4.15;;;2.65;;
21084;SDS011;34247;50.064;19.970;2023-07-13T02:00:34;5.70;;;2.90;;
21084;SDS011;34247;50.064;19.970;2023-07-13T02:02:07;4.10;;;3.10;;
21084;SDS011;34247;50.064;19.970;2023-07-13T02:03:40;5.13;;;3.13;;
21084;SDS011;34247;50.064;19.970;2023-07-13T02:05:13;5.32;;;3.10;;
21084;SDS011;34247;50.064;19.970;2023-07-13T02:06:49;5.85;;;3.10;;
21084;SDS011;34247;50.064;19.970;2023-07-13T02:08:22;3.15;;;2.60;;
21084;SDS011;34247;50.064;19.970;2023-07-13T02:09:55;3.92;;;2.60;;
21084;SDS011;34247;50.064;19.970;2023-07-13T02:11:28;4.15;;;3.17;;
21084;SDS011;34247;50.064;19.970;2023-07-13T02:13:01;6.38;;;3.38;;
21084;SDS011;34247;50.064;19.970;2023-07-13T02:14:36;8.98;;;3.05;;
21084;SDS011;34247;50.064;19.970;2023-07-13T02:16:09;5.55;;;2.75;;
21084;SDS011;34247;50.064;19.970;2023-07-13T02:17:43;4.47;;;3.13;;
21084;SDS011;34247;50.064;19.970;2023-07-13T02:19:16;4.57;;;2.65;;
21084;SDS011;34247;50.064;19.970;2023-07-13T02:20:49;5.13;;;3.28;;
21084;SDS011;34247;50.064;19.970;2023-07-13T02:22:22;4.18;;;2.80;;
21084;SDS011;34247;50.064;19.970;2023-07-13T02:23:56;4.75;;;3.17;;
21084;SDS011;34247;50.064;19.970;2023-07-13T02:25:28;5.10;;;3.08;;
21084;SDS011;34247;50.064;19.970;2023-07-13T02:27:01;5.85;;;3.13;;
21084;SDS011;34247;50.064;19.970;2023-07-13T02:28:35;4.88;;;2.85;;
21084;SDS011;34247;50.064;19.970;2023-07-13T02:30:08;7.65;;;2.85;;
21084;SDS011;34247;50.064;19.970;2023-07-13T02:31:43;4.80;;;2.90;;
21084;SDS011;34247;50.064;19.970;2023-07-13T02:33:16;6.13;;;2.97;;
21084;SDS011;34247;50.064;19.970;2023-07-13T02:34:49;3.40;;;2.65;;
21084;SDS011;34247;50.064;19.970;2023-07-13T02:36:22;5.85;;;2.70;;
21084;SDS011;34247;50.064;19.970;2023-07-13T02:37:55;3.88;;;3.00;;
21084;SDS011;34247;50.064;19.970;2023-07-13T02:39:29;5.03;;;2.88;;
21084;SDS011;34247;50.064;19.970;2023-07-13T02:41:03;5.38;;;2.85;;
21084;SDS011;34247;50.064;19.970;2023-07-13T02:42:38;4.75;;;2.90;;
21084;SDS011;34247;50.064;19.970;2023-07-13T02:44:12;3.80;;;2.33;;
21084;SDS011;34247;50.064;19.970;2023-07-13T02:45:46;4.47;;;3.13;;
21084;SDS011;34247;50.064;19.970;2023-07-13T02:47:19;6.72;;;3.65;;
21084;SDS011;34247;50.064;19.970;2023-07-13T02:48:52;6.65;;;3.30;;
21084;SDS011;34247;50.064;19.970;2023-07-13T02:50:25;5.97;;;3.00;;
21084;SDS011;34247;50.064;19.970;2023-07-13T02:51:58;4.50;;;2.75;;
21084;SDS011;34247;50.064;19.970;2023-07-13T02:53:34;3.88;;;2.83;;
21084;SDS011;34247;50.064;19.970;2023-07-13T02:55:08;4.93;;;3.05;;
21084;SDS011;34247;50.064;19.970;2023-07-13T02:56:42;4.50;;;3.00;;
21084;SDS011;34247;50.064;19.970;2023-07-13T02:58:15;6.38;;;3.08;;
21084;SDS011;34247;50.064;19.970;2023-07-13T02:59:49;4.35;;;2.70;;
21084;SDS011;34247;50.064;19.970;2023-07-13T03:01:22;4.65;;;2.60;;
21084;SDS011;34247;50.064;19.970;2023-07-13T03:02:56;8.77;;;3.97;;
21084;SDS011;34247;50.064;19.970;2023-07-13T03:04:30;4.55;;;2.97;;
21084;SDS011;34247;50.064;19.970;2023-07-13T03:06:03;8.82;;;3.35;;
21084;SDS011;34247;50.064;19.970;2023-07-13T03:07:37;3.60;;;2.72;;
21084;SDS011;34247;50.064;19.970;2023-07-13T03:09:11;5.32;;;2.40;;
21084;SDS011;34247;50.064;19.970;2023-07-13T03:10:44;4.68;;;3.35;;
21084;SDS011;34247;50.064;19.970;2023-07-13T03:12:17;4.45;;;2.40;;
21084;SDS011;34247;50.064;19.970;2023-07-13T03:13:51;4.97;;;3.00;;
21084;SDS011;34247;50.064;19.970;2023-07-13T03:15:25;2.78;;;2.25;;
21084;SDS011;34247;50.064;19.970;2023-07-13T03:17:03;4.80;;;2.53;;
21084;SDS011;34247;50.064;19.970;2023-07-13T03:18:36;3.67;;;2.25;;
21084;SDS011;34247;50.064;19.970;2023-07-13T03:20:10;4.22;;;2.75;;
21084;SDS011;34247;50.064;19.970;2023-07-13T03:21:47;4.57;;;2.70;;
21084;SDS011;34247;50.064;19.970;2023-07-13T03:23:20;9.48;;;3.33;;
21084;SDS011;34247;50.064;19.970;2023-07-13T03:24:55;7.38;;;2.90;;
21084;SDS011;34247;50.064;19.970;2023-07-13T03:26:28;4.03;;;2.70;;
21084;SDS011;34247;50.064;19.970;2023-07-13T03:28:04;4.38;;;2.50;;
21084;SDS011;34247;50.064;19.970;2023-07-13T03:29:40;3.95;;;2.67;;
21084;SDS011;34247;50.064;19.970;2023-07-13T03:31:18;5.82;;;2.95;;
21084;SDS011;34247;50.064;19.970;2023-07-13T03:33:18;6.75;;;3.08;;
21084;SDS011;34247;50.064;19.970;2023-07-13T03:34:52;3.80;;;2.83;;
21084;SDS011;34247;50.064;19.970;2023-07-13T03:36:32;4.65;;;2.65;;
21084;SDS011;34247;50.064;19.970;2023-07-13T03:38:16;6.35;;;2.60;;
21084;SDS011;34247;50.064;19.970;2023-07-13T03:39:54;4.53;;;2.17;;
21084;SDS011;34247;50.064;19.970;2023-07-13T03:41:33;5.07;;;2.63;;
21084;SDS011;34247;50.064;19.970;2023-07-13T03:43:18;3.95;;;2.30;;
21084;SDS011;34247;50.064;19.970;2023-07-13T03:44:52;3.47;;;2.00;;
21084;SDS011;34247;50.064;19.970;2023-07-13T03:46:26;5.13;;;2.80;;
21084;SDS011;34247;50.064;19.970;2023-07-13T03:47:59;4.60;;;2.58;;
21084;SDS011;34247;50.064;19.970;2023-07-13T03:49:33;7.57;;;2.42;;
21084;SDS011;34247;50.064;19.970;2023-07-13T03:51:10;3.63;;;2.80;;
21084;SDS011;34247;50.064;19.970;2023-07-13T03:52:48;3.85;;;2.08;;
21084;SDS011;34247;50.064;19.970;2023-07-13T03:54:22;6.03;;;2.78;;
21084;SDS011;34247;50.064;19.970;2023-07-13T03:55:56;4.82;;;2.30;;
21084;SDS011;34247;50.064;19.970;2023-07-13T03:57:31;6.75;;;2.17;;
21084;SDS011;34247;50.064;19.970;2023-07-13T03:59:04;3.25;;;2.35;;
21084;SDS011;34247;50.064;19.970;2023-07-13T04:00:38;3.63;;;2.60;;
21084;SDS011;34247;50.064;19.970;2023-07-13T04:02:12;4.35;;;2.45;;
21084;SDS011;34247;50.064;19.970;2023-07-13T04:03:50;3.95;;;2.40;;
21084;SDS011;34247;50.064;19.970;2023-07-13T04:05:24;4.65;;;2.72;;
21084;SDS011;34247;50.064;19.970;2023-07-13T04:06:58;3.72;;;2.78;;
21084;SDS011;34247;50.064;19.970;2023-07-13T04:08:33;5.13;;;2.60;;
21084;SDS011;34247;50.064;19.970;2023-07-13T04:10:09;3.25;;;2.65;;
21084;SDS011;34247;50.064;19.970;2023-07-13T04:11:42;4.18;;;2.45;;
21084;SDS011;34247;50.064;19.970;2023-07-13T04:13:15;3.25;;;2.53;;
21084;SDS011;34247;50.064;19.970;2023-07-13T04:14:48;5.18;;;2.55;;
21084;SDS011;34247;50.064;19.970;2023-07-13T04:16:21;4.22;;;2.80;;
21084;SDS011;34247;50.064;19.970;2023-07-13T04:17:55;8.05;;;2.80;;
21084;SDS011;34247;50.064;19.970;2023-07-13T04:19:28;4.40;;;3.03;;
21084;SDS011;34247;50.064;19.970;2023-07-13T04:21:01;8.88;;;3.20;;
21084;SDS011;34247;50.064;19.970;2023-07-13T04:22:34;4.50;;;2.83;;
21084;SDS011;34247;50.064;19.970;2023-07-13T04:24:08;4.00;;;2.58;;
21084;SDS011;34247;50.064;19.970;2023-07-13T04:25:44;4.05;;;2.85;;
21084;SDS011;34247;50.064;19.970;2023-07-13T04:27:23;5.00;;;2.97;;
21084;SDS011;34247;50.064;19.970;2023-07-13T04:28:57;4.90;;;2.58;;
21084;SDS011;34247;50.064;19.970;2023-07-13T04:30:30;3.20;;;2.60;;
21084;SDS011;34247;50.064;19.970;2023-07-13T04:32:04;4.38;;;2.60;;
21084;SDS011;34247;50.064;19.970;2023-07-13T04:33:37;3.50;;;2.22;;
21084;SDS011;34247;50.064;19.970;2023-07-13T04:35:10;3.40;;;2.58;;
21084;SDS011;34247;50.064;19.970;2023-07-13T04:36:44;4.18;;;2.75;;
21084;SDS011;34247;50.064;19.970;2023-07-13T04:38:17;4.82;;;2.65;;
21084;SDS011;34247;50.064;19.970;2023-07-13T04:39:50;6.13;;;2.80;;
21084;SDS011;34247;50.064;19.970;2023-07-13T04:41:23;4.57;;;3.00;;
21084;SDS011;34247;50.064;19.970;2023-07-13T04:42:56;12.57;;;6.70;;
21084;SDS011;34247;50.064;19.970;2023-07-13T04:44:29;5.88;;;3.72;;
21084;SDS011;34247;50.064;19.970;2023-07-13T04:46:06;6.35;;;4.53;;
21084;SDS011;34247;50.064;19.970;2023-07-13T04:47:43;7.03;;;4.10;;
21084;SDS011;34247;50.064;19.970;2023-07-13T04:49:16;4.80;;;3.25;;
21084;SDS011;34247;50.064;19.970;2023-07-13T04:50:56;3.40;;;2.08;;
21084;SDS011;34247;50.064;19.970;2023-07-13T04:52:31;4.20;;;2.60;;
21084;SDS011;34247;50.064;19.970;2023-07-13T04:54:04;5.90;;;2.72;;
21084;SDS011;34247;50.064;19.970;2023-07-13T04:55:37;4.15;;;3.00;;
21084;SDS011;34247;50.064;19.970;2023-07-13T04:57:10;4.40;;;2.65;;
21084;SDS011;34247;50.064;19.970;2023-07-13T04:58:43;3.08;;;1.98;;
21084;SDS011;34247;50.064;19.970;2023-07-13T05:00:16;7.05;;;2.70;;
21084;SDS011;34247;50.064;19.970;2023-07-13T05:01:51;2.45;;;2.17;;
21084;SDS011;34247;50.064;19.970;2023-07-13T05:03:25;5.35;;;2.53;;
21084;SDS011;34247;50.064;19.970;2023-07-13T05:04:58;2.38;;;1.80;;
21084;SDS011;34247;50.064;19.970;2023-07-13T05:06:32;2.95;;;2.20;;
21084;SDS011;34247;50.064;19.970;2023-07-13T05:08:05;6.50;;;2.00;;
21084;SDS011;34247;50.064;19.970;2023-07-13T05:09:39;3.17;;;2.17;;
21084;SDS011;34247;50.064;19.970;2023-07-13T05:11:12;6.05;;;2.05;;
21084;SDS011;34247;50.064;19.970;2023-07-13T05:12:46;2.20;;;1.83;;
21084;SDS011;34247;50.064;19.970;2023-07-13T05:14:19;4.20;;;2.08;;
21084;SDS011;34247;50.064;19.970;2023-07-13T05:15:59;2.38;;;2.00;;
21084;SDS011;34247;50.064;19.970;2023-07-13T05:17:34;3.10;;;1.92;;
21084;SDS011;34247;50.064;19.970;2023-07-13T05:19:08;3.17;;;2.08;;
21084;SDS011;34247;50.064;19.970;2023-07-13T05:20:42;3.28;;;1.77;;
21084;SDS011;34247;50.064;19.970;2023-07-13T05:22:15;5.40;;;2.25;;
21084;SDS011;34247;50.064;19.970;2023-07-13T05:23:49;2.78;;;1.98;;
21084;SDS011;34247;50.064;19.970;2023-07-13T05:25:22;7.43;;;2.05;;
21084;SDS011;34247;50.064;19.970;2023-07-13T05:26:55;1.92;;;1.48;;
21084;SDS011;34247;50.064;19.970;2023-07-13T05:28:29;2.55;;;1.63;;
21084;SDS011;34247;50.064;19.970;2023-07-13T05:30:04;3.58;;;1.60;;
21084;SDS011;34247;50.064;19.970;2023-07-13T05:31:38;3.28;;;2.13;;
21084;SDS011;34247;50.064;19.970;2023-07-13T05:33:12;4.05;;;2.15;;
21084;SDS011;34247;50.064;19.970;2023-07-13T05:34:46;2.53;;;1.52;;
21084;SDS011;34247;50.064;19.970;2023-07-13T05:36:19;2.67;;;1.83;;
21084;SDS011;34247;50.064;19.970;2023-07-13T05:37:52;4.15;;;2.08;;
21084;SDS011;34247;50.064;19.970;2023-07-13T05:39:25;4.47;;;2.08;;
21084;SDS011;34247;50.064;19.970;2023-07-13T05:40:58;6.38;;;2.50;;
21084;SDS011;34247;50.064;19.970;2023-07-13T05:42:36;2.80;;;2.25;;
21084;SDS011;34247;50.064;19.970;2023-07-13T05:44:09;4.07;;;1.90;;
21084;SDS011;34247;50.064;19.970;2023-07-13T05:45:42;3.95;;;2.50;;
21084;SDS011;34247;50.064;19.970;2023-07-13T05:47:15;3.10;;;2.05;;
21084;SDS011;34247;50.064;19.970;2023-07-13T05:48:48;2.28;;;1.63;;
21084;SDS011;34247;50.064;19.970;2023-07-13T05:50:21;1.95;;;1.60;;
21084;SDS011;34247;50.064;19.970;2023-07-13T05:51:54;3.33;;;2.00;;
21084;SDS011;34247;50.064;19.970;2023-07-13T05:53:27;5.53;;;1.85;;
21084;SDS011;34247;50.064;19.970;2023-07-13T05:55:00;4.40;;;1.95;;
21084;SDS011;34247;50.064;19.970;2023-07-13T05:56:33;3.38;;;2.28;;
21084;SDS011;34247;50.064;19.970;2023-07-13T05:58:06;3.53;;;2.30;;
21084;SDS011;34247;50.064;19.970;2023-07-13T05:59:39;3.97;;;2.08;;
21084;SDS011;34247;50.064;19.970;2023-07-13T06:01:13;4.55;;;2.25;;
21084;SDS011;34247;50.064;19.970;2023-07-13T06:02:50;3.72;;;2.50;;
21084;SDS011;34247;50.064;19.970;2023-07-13T06:04:23;6.22;;;2.65;;
21084;SDS011;34247;50.064;19.970;2023-07-13T06:05:56;4.15;;;2.55;;
21084;SDS011;34247;50.064;19.970;2023-07-13T06:07:30;5.90;;;2.50;;
21084;SDS011;34247;50.064;19.970;2023-07-13T06:09:03;3.28;;;2.25;;
21084;SDS011;34247;50.064;19.970;2023-07-13T06:10:36;3.72;;;2.30;;
21084;SDS011;34247;50.064;19.970;2023-07-13T06:12:10;3.53;;;1.92;;
21084;SDS011;34247;50.064;19.970;2023-07-13T06:13:43;3.42;;;2.47;;
21084;SDS011;34247;50.064;19.970;2023-07-13T06:15:16;1.73;;;1.58;;
21084;SDS011;34247;50.064;19.970;2023-07-13T06:16:51;6.28;;;2.00;;
21084;SDS011;34247;50.064;19.970;2023-07-13T06:18:24;3.90;;;2.13;;
21084;SDS011;34247;50.064;19.970;2023-07-13T06:19:57;3.20;;;2.05;;
21084;SDS011;34247;50.064;19.970;2023-07-13T06:21:30;6.30;;;1.85;;
21084;SDS011;34247;50.064;19.970;2023-07-13T06:23:04;4.18;;;2.20;;
21084;SDS011;34247;50.064;19.970;2023-07-13T06:24:36;4.05;;;2.00;;
21084;SDS011;34247;50.064;19.970;2023-07-13T06:26:10;4.95;;;2.42;;
21084;SDS011;34247;50.064;19.970;2023-07-13T06:27:43;3.20;;;2.13;;
21084;SDS011;34247;50.064;19.970;2023-07-13T06:29:16;2.75;;;1.75;;
21084;SDS011;34247;50.064;19.970;2023-07-13T06:30:50;3.97;;;2.00;;
21084;SDS011;34247;50.064;19.970;2023-07-13T06:32:23;6.78;;;2.30;;
21084;SDS011;34247;50.064;19.970;2023-07-13T06:33:56;7.45;;;2.28;;
21084;SDS011;34247;50.064;19.970;2023-07-13T06:35:29;2.75;;;1.80;;
21084;SDS011;34247;50.064;19.970;2023-07-13T06:37:06;3.92;;;1.92;;
21084;SDS011;34247;50.064;19.970;2023-07-13T06:38:39;5.38;;;2.38;;
21084;SDS011;34247;50.064;19.970;2023-07-13T06:40:12;3.58;;;2.22;;
21084;SDS011;34247;50.064;19.970;2023-07-13T06:41:45;6.00;;;2.28;;
21084;SDS011;34247;50.064;19.970;2023-07-13T06:43:18;2.10;;;1.90;;
21084;SDS011;34247;50.064;19.970;2023-07-13T06:44:51;8.23;;;2.75;;
21084;SDS011;34247;50.064;19.970;2023-07-13T06:46:24;3.55;;;2.05;;
21084;SDS011;34247;50.064;19.970;2023-07-13T06:47:58;2.55;;;2.05;;
21084;SDS011;34247;50.064;19.970;2023-07-13T06:49:31;5.40;;;2.40;;
21084;SDS011;34247;50.064;19.970;2023-07-13T06:51:04;4.75;;;2.53;;
21084;SDS011;34247;50.064;19.970;2023-07-13T06:52:37;7.68;;;2.70;;
21084;SDS011;34247;50.064;19.970;2023-07-13T06:54:10;5.00;;;2.50;;
21084;SDS011;34247;50.064;19.970;2023-07-13T06:55:44;5.32;;;2.22;;
21084;SDS011;34247;50.064;19.970;2023-07-13T06:57:17;4.55;;;2.30;;
21084;SDS011;34247;50.064;19.970;2023-07-13T06:58:52;4.32;;;2.25;;
21084;SDS011;34247;50.064;19.970;2023-07-13T07:00:26;1.85;;;1.60;;
21084;SDS011;34247;50.064;19.970;2023-07-13T07:01:59;3.95;;;2.30;;
21084;SDS011;34247;50.064;19.970;2023-07-13T07:03:33;3.88;;;2.00;;
21084;SDS011;34247;50.064;19.970;2023-07-13T07:05:06;3.50;;;2.40;;
21084;SDS011;34247;50.064;19.970;2023-07-13T07:06:39;6.20;;;2.20;;
21084;SDS011;34247;50.064;19.970;2023-07-13T07:08:12;3.53;;;1.98;;
21084;SDS011;34247;50.064;19.970;2023-07-13T07:09:46;3.65;;;2.35;;
21084;SDS011;34247;50.064;19.970;2023-07-13T07:11:23;3.88;;;2.13;;
21084;SDS011;34247;50.064;19.970;2023-07-13T07:12:58;4.93;;;2.10;;
21084;SDS011;34247;50.064;19.970;2023-07-13T07:14:31;4.05;;;2.13;;
21084;SDS011;34247;50.064;19.970;2023-07-13T07:16:04;3.47;;;1.98;;
21084;SDS011;34247;50.064;19.970;2023-07-13T07:17:37;4.13;;;2.13;;
21084;SDS011;34247;50.064;19.970;2023-07-13T07:19:11;4.60;;;1.90;;
21084;SDS011;34247;50.064;19.970;2023-07-13T07:20:44;4.28;;;1.77;;
21084;SDS011;34247;50.064;19.970;2023-07-13T07:22:17;2.85;;;1.67;;
21084;SDS011;34247;50.064;19.970;2023-07-13T07:23:51;3.55;;;2.22;;
21084;SDS011;34247;50.064;19.970;2023-07-13T07:25:25;3.22;;;2.03;;
21084;SDS011;34247;50.064;19.970;2023-07-13T07:26:58;2.70;;;1.83;;
21084;SDS011;34247;50.064;19.970;2023-07-13T07:28:34;6.70;;;2.15;;
21084;SDS011;34247;50.064;19.970;2023-07-13T07:30:10;5.00;;;2.10;;
21084;SDS011;34247;50.064;19.970;2023-07-13T07:31:47;3.85;;;2.10;;
21084;SDS011;34247;50.064;19.970;2023-07-13T07:33:36;6.93;;;2.10;;
21084;SDS011;34247;50.064;19.970;2023-07-13T07:35:09;3.70;;;1.70;;
21084;SDS011;34247;50.064;19.970;2023-07-13T07:36:42;4.30;;;2.28;;
21084;SDS011;34247;50.064;19.970;2023-07-13T07:38:18;2.85;;;2.00;;
21084;SDS011;34247;50.064;19.970;2023-07-13T07:39:55;5.28;;;1.83;;
21084;SDS011;34247;50.064;19.970;2023-07-13T07:41:31;2.83;;;1.73;;
21084;SDS011;34247;50.064;19.970;2023-07-13T07:43:07;2.67;;;1.83;;
21084;SDS011;34247;50.064;19.970;2023-07-13T07:44:43;3.42;;;1.75;;
21084;SDS011;34247;50.064;19.970;2023-07-13T07:46:23;3.53;;;2.17;;
21084;SDS011;34247;50.064;19.970;2023-07-13T07:47:59;5.53;;;2.25;;
21084;SDS011;34247;50.064;19.970;2023-07-13T07:49:33;3.63;;;2.10;;
21084;SDS011;34247;50.064;19.970;2023-07-13T07:51:09;3.17;;;1.50;;
21084;SDS011;34247;50.064;19.970;2023-07-13T07:52:43;3.50;;;1.50;;
21084;SDS011;34247;50.064;19.970;2023-07-13T07:54:16;5.78;;;1.73;;
21084;SDS011;34247;50.064;19.970;2023-07-13T07:56:09;3.13;;;1.63;;
21084;SDS011;34247;50.064;19.970;2023-07-13T07:57:48;2.15;;;1.70;;
21084;SDS011;34247;50.064;19.970;2023-07-13T07:59:25;4.88;;;1.65;;
21084;SDS011;34247;50.064;19.970;2023-07-13T08:01:04;2.95;;;1.67;;
21084;SDS011;34247;50.064;19.970;2023-07-13T08:02:41;2.10;;;1.55;;
21084;SDS011;34247;50.064;19.970;2023-07-13T08:04:18;2.67;;;1.75;;
21084;SDS011;34247;50.064;19.970;2023-07-13T08:05:55;6.95;;;1.98;;
21084;SDS011;34247;50.064;19.970;2023-07-13T08:07:48;6.45;;;1.50;;
21084;SDS011;34247;50.064;19.970;2023-07-13T08:09:21;4.20;;;1.58;;
21084;SDS011;34247;50.064;19.970;2023-07-13T08:10:54;3.83;;;1.40;;
21084;SDS011;34247;50.064;19.970;2023-07-13T08:12:38;2.15;;;1.42;;
21084;SDS011;34247;50.064;19.970;2023-07-13T08:14:34;2.65;;;1.40;;
21084;SDS011;34247;50.064;19.970;2023-07-13T08:16:26;3.35;;;1.90;;
21084;SDS011;34247;50.064;19.970;2023-07-13T08:18:00;1.52;;;1.35;;
21084;SDS011;34247;50.064;19.970;2023-07-13T08:19:33;7.32;;;1.77;;
21084;SDS011;34247;50.064;19.970;2023-07-13T08:21:07;4.93;;;2.47;;
21084;SDS011;34247;50.064;19.970;2023-07-13T08:22:45;5.95;;;1.90;;
21084;SDS011;34247;50.064;19.970;2023-07-13T08:24:21;3.05;;;1.80;;
21084;SDS011;34247;50.064;19.970;2023-07-13T08:25:56;2.55;;;1.77;;
21084;SDS011;34247;50.064;19.970;2023-07-13T08:27:34;4.28;;;1.50;;
21084;SDS011;34247;50.064;19.970;2023-07-13T08:29:07;2.33;;;1.52;;
21084;SDS011;34247;50.064;19.970;2023-07-13T08:30:42;7.40;;;1.40;;
21084;SDS011;34247;50.064;19.970;2023-07-13T08:32:19;5.20;;;1.60;;
21084;SDS011;34247;50.064;19.970;2023-07-13T08:33:58;5.93;;;1.70;;
21084;SDS011;34247;50.064;19.970;2023-07-13T08:35:31;3.70;;;2.17;;
21084;SDS011;34247;50.064;19.970;2023-07-13T08:37:04;2.42;;;1.58;;
21084;SDS011;34247;50.064;19.970;2023-07-13T08:38:38;2.78;;;1.40;;
21084;SDS011;34247;50.064;19.970;2023-07-13T08:40:11;4.10;;;1.85;;
21084;SDS011;34247;50.064;19.970;2023-07-13T08:41:46;3.13;;;1.40;;
21084;SDS011;34247;50.064;19.970;2023-07-13T08:43:34;3.15;;;1.58;;
21084;SDS011;34247;50.064;19.970;2023-07-13T08:45:21;1.88;;;1.48;;
21084;SDS011;34247;50.064;19.970;2023-07-13T08:46:56;6.88;;;1.77;;
21084;SDS011;34247;50.064;19.970;2023-07-13T08:48:35;4.03;;;1.52;;
21084;SDS011;34247;50.064;19.970;2023-07-13T08:50:20;1.85;;;1.40;;
21084;SDS011;34247;50.064;19.970;2023-07-13T08:52:12;2.33;;;1.58;;
21084;SDS011;34247;50.064;19.970;2023-07-13T08:54:07;1.80;;;1.40;;
21084;SDS011;34247;50.064;19.970;2023-07-13T08:55:58;2.63;;;1.60;;
21084;SDS011;34247;50.064;19.970;2023-07-13T08:57:33;1.65;;;1.40;;
21084;SDS011;34247;50.064;19.970;2023-07-13T08:59:14;6.95;;;1.90;;
21084;SDS011;34247;50.064;19.970;2023-07-13T09:02:45;3.60;;;1.50;;
21084;SDS011;34247;50.064;19.970;2023-07-13T09:04:28;1.55;;;1.30;;
21084;SDS011;34247;50.064;19.970;2023-07-13T09:06:14;2.38;;;1.33;;
21084;SDS011;34247;50.064;19.970;2023-07-13T09:12:00;1.85;;;1.48;;
21084;SDS011;34247;50.064;19.970;2023-07-13T09:14:02;3.03;;;1.58;;
21084;SDS011;34247;50.064;19.970;2023-07-13T09:15:54;1.70;;;1.20;;
21084;SDS011;34247;50.064;19.970;2023-07-13T09:17:39;5.35;;;1.75;;
21084;SDS011;34247;50.064;19.970;2023-07-13T09:19:31;12.13;;;1.75;;
21084;SDS011;34247;50.064;19.970;2023-07-13T09:23:04;3.60;;;1.55;;
21084;SDS011;34247;50.064;19.970;2023-07-13T09:24:54;3.55;;;2.03;;
21084;SDS011;34247;50.064;19.970;2023-07-13T09:26:52;2.38;;;1.58;;
21084;SDS011;34247;50.064;19.970;2023-07-13T09:28:28;1.83;;;1.30;;
21084;SDS011;34247;50.064;19.970;2023-07-13T09:31:53;1.83;;;1.40;;
21084;SDS011;34247;50.064;19.970;2023-07-13T09:33:34;1.70;;;1.40;;
21084;SDS011;34247;50.064;19.970;2023-07-13T09:35:15;3.25;;;1.80;;